Time;durP1;ratioP1;P1;durP2;ratioP2;P2;SDS_P1;SDS_P2;PMS_P1;PMS_P2;Temp;Humidity;BMP_temperature;BMP_pressure;BME280_temperature;BME280_humidity;BME280_pressure;Samples;Min_cycle;Max_cycle;Signal;HPM_P1;HPM_P2
2021/07/15 00:02:34;;;;;;;17.05;15.35;;;20.80;99.90;;;;;;5033134;28;20072;-92
2021/07/15 00:05:13;;;;;;;17.13;15.43;;;20.80;99.90;;;;;;5002262;28;20473;-92
2021/07/15 00:07:39;;;;;;;16.80;15.05;;;20.80;99.90;;;;;;5020754;28;20033;-93
2021/07/15 00:10:21;;;;;;;;;;;;;;;;;;;;;
2021/07/15 00:12:52;;;;;;;16.02;14.43;;;20.80;99.90;;;;;;5042483;28;20076;-91
2021/07/15 00:15:24;;;;;;;15.77;14.18;;;20.80;99.90;;;;;;5032361;28;20060;-95
2021/07/15 00:17:52;;;;;;;14.77;13.13;;;20.80;99.90;;;;;;5030983;28;20022;-93
2021/07/15 00:20:26;;;;;;;15.90;13.32;;;20.80;99.90;;;;;;5033928;28;20072;-93
2021/07/15 00:22:57;;;;;;;18.80;13.75;;;20.80;99.90;;;;;;5017605;28;20383;-91
2021/07/15 00:25:23;;;;;;;16.02;13.27;;;20.80;99.90;;;;;;5017221;28;20120;-92
2021/07/15 00:28:04;;;;;;;14.27;12.77;;;20.70;99.90;;;;;;5032844;28;20049;-92
2021/07/15 00:30:30;;;;;;;13.57;12.18;;;20.80;99.90;;;;;;5017324;28;20453;-92
2021/07/15 00:33:00;;;;;;;13.88;12.48;;;20.70;99.90;;;;;;5033255;28;20014;-94
2021/07/15 00:35:32;;;;;;;13.90;12.13;;;20.70;99.90;;;;;;5033322;28;20033;-92
2021/07/15 00:37:58;;;;;;;14.23;12.32;;;20.70;99.90;;;;;;5033139;28;20104;-92
2021/07/15 00:40:34;;;;;;;13.40;11.30;;;20.70;99.90;;;;;;5033024;28;20043;-92
2021/07/15 00:43:02;;;;;;;13.88;12.45;;;20.70;99.90;;;;;;5032650;28;20103;-91
2021/07/15 00:45:30;;;;;;;15.82;12.95;;;20.60;99.90;;;;;;5016717;28;20029;-93
2021/07/15 00:48:07;;;;;;;15.38;12.50;;;20.60;99.90;;;;;;5032992;28;20018;-92
2021/07/15 00:50:39;;;;;;;14.93;12.82;;;20.60;99.90;;;;;;5033756;28;20049;-93
2021/07/15 00:53:11;;;;;;;14.75;13.20;;;20.60;99.90;;;;;;4997789;28;20037;-92
2021/07/15 00:56:05;;;;;;;;;;;;;;;;;;;;;
2021/07/15 00:58:39;;;;;;;16.48;13.70;;;20.60;99.90;;;;;;5034655;28;20025;-92
2021/07/15 01:01:13;;;;;;;15.77;13.95;;;20.60;99.90;;;;;;5033005;28;20056;-92
2021/07/15 01:03:44;;;;;;;17.75;13.85;;;20.60;99.90;;;;;;5032134;28;20077;-91
2021/07/15 01:06:19;;;;;;;18.33;15.00;;;20.60;99.90;;;;;;5000828;28;20044;-91
2021/07/15 01:08:47;;;;;;;20.27;16.80;;;20.50;99.90;;;;;;5033107;28;20033;-90
2021/07/15 01:11:45;;;;;;;19.27;15.63;;;20.50;99.90;;;;;;5032281;28;20076;-94
2021/07/15 01:14:25;;;;;;;19.13;16.23;;;20.50;99.90;;;;;;5018092;28;20037;-91
2021/07/15 01:16:58;;;;;;;20.00;16.67;;;20.50;99.90;;;;;;5015802;28;20029;-92
2021/07/15 01:20:23;;;;;;;20.67;16.75;;;20.50;99.90;;;;;;5032705;28;20029;-93
2021/07/15 01:23:08;;;;;;;18.02;15.93;;;20.50;99.90;;;;;;4973033;28;20507;-91
2021/07/15 01:25:55;;;;;;;20.75;17.05;;;20.40;99.90;;;;;;4974962;28;20082;-91
2021/07/15 01:28:34;;;;;;;18.63;16.63;;;20.40;99.90;;;;;;5028374;28;20025;-91
2021/07/15 01:31:06;;;;;;;21.13;16.42;;;20.40;99.90;;;;;;5033021;28;20045;-91
2021/07/15 01:33:36;;;;;;;18.27;15.13;;;20.40;99.90;;;;;;5002256;28;20030;-91
2021/07/15 01:36:10;;;;;;;17.08;15.15;;;20.40;99.90;;;;;;5032371;28;20025;-91
2021/07/15 01:38:41;;;;;;;17.73;14.80;;;20.40;99.90;;;;;;5019010;28;20309;-91
2021/07/15 01:41:18;;;;;;;18.25;15.07;;;20.40;99.90;;;;;;5033059;28;20029;-93
2021/07/15 01:44:20;;;;;;;16.65;14.90;;;20.40;99.90;;;;;;5032199;28;20029;-92
2021/07/15 01:46:49;;;;;;;16.02;14.07;;;20.40;99.90;;;;;;5032526;28;20124;-93
2021/07/15 01:49:15;;;;;;;16.23;13.68;;;20.30;99.90;;;;;;5019377;28;20119;-93
2021/07/15 01:51:42;;;;;;;14.93;12.73;;;20.30;99.90;;;;;;5033158;28;20563;-91
2021/07/15 01:54:19;;;;;;;14.60;12.63;;;20.30;99.90;;;;;;5034916;28;20108;-93
2021/07/15 01:56:55;;;;;;;14.52;12.68;;;20.30;99.90;;;;;;5040154;28;20017;-92
2021/07/15 01:59:37;;;;;;;;;;;;;;;;;;;;;
2021/07/15 02:02:07;;;;;;;17.83;14.60;;;20.30;99.90;;;;;;5042372;28;20128;-93
2021/07/15 02:04:46;;;;;;;17.73;15.15;;;20.20;99.90;;;;;;5036349;28;20084;-92
2021/07/15 02:07:22;;;;;;;18.88;15.73;;;20.20;99.90;;;;;;5023259;28;20022;-91
2021/07/15 02:09:51;;;;;;;20.52;16.35;;;20.20;99.90;;;;;;5036944;28;20036;-92
2021/07/15 02:12:21;;;;;;;22.38;17.08;;;20.20;99.90;;;;;;5019690;28;20037;-93
2021/07/15 02:14:50;;;;;;;24.00;16.90;;;20.20;99.90;;;;;;5036237;28;20028;-93
2021/07/15 02:17:18;;;;;;;21.70;17.95;;;20.20;99.90;;;;;;5036283;28;20021;-93
2021/07/15 02:19:45;;;;;;;21.58;17.45;;;20.20;99.90;;;;;;5036211;28;20124;-93
2021/07/15 02:22:11;;;;;;;22.13;17.75;;;20.20;99.90;;;;;;5036788;28;20021;-94
2021/07/15 02:24:53;;;;;;;;;;;;;;;;;;;;;
2021/07/15 02:27:22;;;;;;;21.95;16.35;;;20.20;99.90;;;;;;5024858;28;20392;-94
2021/07/15 02:29:50;;;;;;;19.45;16.08;;;20.20;99.90;;;;;;5035754;28;20026;-93
2021/07/15 02:32:31;;;;;;;23.35;17.42;;;20.20;99.90;;;;;;5036709;28;20554;-93
2021/07/15 02:35:13;;;;;;;19.20;16.63;;;20.20;99.90;;;;;;5034924;28;20473;-91
2021/07/15 02:37:43;;;;;;;23.10;17.67;;;20.20;99.90;;;;;;5024037;28;20053;-92
2021/07/15 02:40:22;;;;;;;22.83;17.50;;;20.20;99.90;;;;;;5034984;28;20068;-92
2021/07/15 02:42:53;;;;;;;21.92;17.25;;;20.20;99.90;;;;;;5035517;28;20017;-93
2021/07/15 02:45:20;;;;;;;22.33;17.08;;;20.20;99.90;;;;;;5035503;28;20026;-93
2021/07/15 02:48:16;;;;;;;23.73;17.33;;;20.20;99.90;;;;;;5035805;28;20068;-94
2021/07/15 02:50:56;;;;;;;22.00;16.92;;;20.20;99.90;;;;;;5032522;28;20033;-93
2021/07/15 02:53:41;;;;;;;23.48;18.10;;;20.10;99.90;;;;;;5035985;28;20060;-94
2021/07/15 02:56:45;;;;;;;22.00;16.48;;;20.20;99.90;;;;;;5035439;28;20076;-94
2021/07/15 02:59:24;;;;;;;22.33;16.30;;;20.10;99.90;;;;;;5036777;28;20018;-94
2021/07/15 03:02:16;;;;;;;21.90;15.98;;;20.10;99.90;;;;;;5036159;28;20527;-94
2021/07/15 03:04:58;;;;;;;19.50;16.17;;;20.10;99.90;;;;;;5015857;28;20049;-94
2021/07/15 03:07:38;;;;;;;18.60;15.07;;;20.10;99.90;;;;;;5033196;28;20025;-93
2021/07/15 03:10:10;;;;;;;17.17;13.73;;;20.10;99.90;;;;;;5035941;28;20463;-93
2021/07/15 03:12:47;;;;;;;15.77;12.82;;;20.10;99.90;;;;;;5035960;28;20075;-92
2021/07/15 03:15:18;;;;;;;17.85;13.02;;;20.10;99.90;;;;;;5023008;28;20093;-93
2021/07/15 03:17:50;;;;;;;;;;;20.10;99.90;;;;;;5034101;28;20091;-94
2021/07/15 03:20:39;;;;;;;14.88;11.80;;;20.00;99.90;;;;;;5038894;28;19923;-93
2021/07/15 03:23:30;;;;;;;15.02;12.18;;;20.00;99.90;;;;;;5031905;28;20139;-93
2021/07/15 03:26:18;;;;;;;14.07;11.43;;;20.00;99.90;;;;;;5035178;28;20029;-93
2021/07/15 03:28:56;;;;;;;13.18;11.18;;;20.00;99.90;;;;;;5049542;28;20040;-92
2021/07/15 03:31:30;;;;;;;13.07;10.75;;;20.00;99.90;;;;;;5036836;28;20041;-92
2021/07/15 03:34:13;;;;;;;13.70;10.82;;;20.00;99.90;;;;;;5049342;28;20028;-93
2021/07/15 03:36:47;;;;;;;13.68;10.40;;;20.00;99.90;;;;;;5032358;28;20025;-93
2021/07/15 03:39:17;;;;;;;11.27;9.68;;;20.00;99.90;;;;;;5033945;28;20041;-93
2021/07/15 03:41:48;;;;;;;13.20;11.00;;;20.00;99.90;;;;;;5051427;28;20073;-93
2021/07/15 03:44:35;;;;;;;12.93;10.43;;;20.00;99.90;;;;;;5037106;28;20032;-94
2021/07/15 03:47:04;;;;;;;12.45;10.18;;;20.00;99.90;;;;;;5049680;28;20045;-93
2021/07/15 03:49:33;;;;;;;12.80;10.25;;;20.00;99.90;;;;;;5052272;28;20072;-95
2021/07/15 03:52:05;;;;;;;12.10;10.30;;;20.00;99.90;;;;;;5056783;28;20013;-96
2021/07/15 03:54:31;;;;;;;12.18;10.23;;;20.00;99.90;;;;;;5057160;28;20081;-94
2021/07/15 03:57:03;;;;;;;14.10;9.32;;;20.00;99.90;;;;;;5056939;28;20020;-93
2021/07/15 03:59:35;;;;;;;11.82;9.70;;;20.00;99.90;;;;;;5040822;28;20093;-92
2021/07/15 04:02:03;;;;;;;11.65;9.65;;;20.00;99.90;;;;;;5044253;28;20017;-94
2021/07/15 04:04:48;;;;;;;12.25;9.82;;;20.00;99.90;;;;;;5055145;28;20049;-94
2021/07/15 04:07:27;;;;;;;12.20;9.15;;;20.00;99.90;;;;;;5056150;28;20014;-93
2021/07/15 04:10:05;;;;;;;;;;;;;;;;;;;;;
2021/07/15 04:12:34;;;;;;;12.65;9.25;;;20.00;99.90;;;;;;5057325;28;20087;-93
2021/07/15 04:15:00;;;;;;;11.20;9.10;;;20.00;99.90;;;;;;5056259;28;20005;-92
2021/07/15 04:17:54;;;;;;;9.75;8.25;;;20.00;99.90;;;;;;5055287;28;20026;-92
2021/07/15 04:23:29;;;;;;;9.07;7.40;;;20.00;99.90;;;;;;5047606;28;20024;-92
2021/07/15 04:25:55;;;;;;;9.52;7.35;;;20.00;99.90;;;;;;5043107;28;20025;-91
2021/07/15 04:28:29;;;;;;;8.35;6.93;;;20.00;99.90;;;;;;5043864;28;20084;-92
2021/07/15 04:31:03;;;;;;;7.78;6.47;;;19.90;99.90;;;;;;5050044;28;20033;-93
2021/07/15 04:33:58;;;;;;;8.00;6.07;;;19.90;99.90;;;;;;5055171;28;20033;-91
2021/07/15 04:39:20;;;;;;;7.13;5.95;;;19.90;99.90;;;;;;5040545;28;20033;-91
2021/07/15 04:41:54;;;;;;;8.93;6.78;;;19.90;99.90;;;;;;5038419;28;20024;-92
2021/07/15 04:44:33;;;;;;;;;;;;;;;;;;;;;
2021/07/15 04:47:24;;;;;;;9.63;6.85;;;19.90;99.90;;;;;;5066027;28;20072;-94
2021/07/15 04:49:59;;;;;;;10.48;6.65;;;19.90;99.90;;;;;;5050501;28;20036;-93
2021/07/15 04:52:35;;;;;;;10.57;7.95;;;19.90;99.90;;;;;;5043952;28;20036;-94
2021/07/15 04:55:15;;;;;;;9.57;7.45;;;19.90;99.90;;;;;;5043545;28;20006;-93
2021/07/15 04:57:41;;;;;;;11.27;8.60;;;19.90;99.90;;;;;;5065903;22;20024;-88
2021/07/15 05:00:10;;;;;;;11.15;8.63;;;19.90;99.90;;;;;;5040127;22;20068;-87
2021/07/15 05:02:37;;;;;;;12.07;8.93;;;19.90;99.90;;;;;;5018865;28;20112;-87
2021/07/15 05:05:07;;;;;;;13.05;9.68;;;19.90;99.90;;;;;;5028997;28;20543;-87
2021/07/15 05:07:34;;;;;;;13.73;10.38;;;19.90;99.90;;;;;;5031056;28;20029;-88
2021/07/15 05:10:00;;;;;;;15.07;10.27;;;19.90;99.90;;;;;;5029183;28;20105;-87
2021/07/15 05:12:26;;;;;;;14.57;10.93;;;19.90;99.90;;;;;;5019821;28;20522;-87
2021/07/15 05:14:52;;;;;;;12.38;10.35;;;19.90;99.90;;;;;;5031999;28;20391;-87
2021/07/15 05:17:18;;;;;;;14.50;10.55;;;19.90;99.90;;;;;;5011210;28;20046;-87
2021/07/15 05:19:44;;;;;;;16.80;11.05;;;19.90;99.90;;;;;;5023097;28;20041;-88
2021/07/15 05:22:10;;;;;;;14.95;10.95;;;19.90;99.90;;;;;;5030623;28;20018;-87
2021/07/15 05:24:36;;;;;;;16.20;11.43;;;19.90;99.90;;;;;;5014779;28;20037;-88
2021/07/15 05:27:02;;;;;;;19.27;11.82;;;19.90;99.90;;;;;;5013082;28;20468;-88
2021/07/15 05:30:26;;;;;;;17.60;11.88;;;19.90;99.90;;;;;;5037426;28;20033;-87
2021/07/15 05:32:52;;;;;;;19.30;12.60;;;19.90;99.90;;;;;;4984029;28;20075;-88
2021/07/15 05:35:18;;;;;;;17.40;12.73;;;19.90;99.90;;;;;;5014889;28;20030;-87
2021/07/15 05:37:43;;;;;;;21.52;13.65;;;19.90;99.90;;;;;;5014865;28;20091;-87
2021/07/15 05:40:10;;;;;;;18.42;13.35;;;19.80;99.90;;;;;;5017985;28;20493;-88
2021/07/15 05:42:36;;;;;;;19.25;13.32;;;19.90;99.90;;;;;;5014419;28;20029;-87
2021/07/15 05:45:04;;;;;;;20.23;13.77;;;19.90;99.90;;;;;;5024898;28;20025;-87
2021/07/15 05:47:30;;;;;;;19.98;14.80;;;19.90;99.90;;;;;;5033909;28;20017;-87
2021/07/15 05:49:55;;;;;;;20.08;14.65;;;19.90;99.90;;;;;;5034409;28;20040;-87
2021/07/15 05:52:21;;;;;;;24.92;15.43;;;19.90;99.90;;;;;;4998372;28;20033;-87
2021/07/15 05:54:47;;;;;;;20.55;14.38;;;19.90;99.90;;;;;;4998130;28;20030;-87
2021/07/15 05:57:12;;;;;;;23.58;16.13;;;19.80;99.90;;;;;;5014267;28;20133;-87
2021/07/15 05:59:38;;;;;;;24.27;16.00;;;19.90;99.90;;;;;;5032272;28;20079;-87
2021/07/15 06:02:04;;;;;;;23.80;16.45;;;19.90;99.90;;;;;;5014189;28;20033;-87
2021/07/15 06:04:30;;;;;;;28.27;15.60;;;19.80;99.90;;;;;;5030509;28;20083;-87
2021/07/15 06:06:56;;;;;;;27.38;18.60;;;19.80;99.90;;;;;;5027708;28;20033;-87
2021/07/15 06:09:22;;;;;;;25.67;17.45;;;19.90;99.90;;;;;;5027033;28;20104;-87
2021/07/15 06:11:48;;;;;;;26.55;18.27;;;19.80;99.90;;;;;;5013348;28;20026;-87
2021/07/15 06:14:13;;;;;;;28.42;17.95;;;19.80;99.90;;;;;;5025233;28;20038;-86
2021/07/15 06:16:39;;;;;;;26.20;17.80;;;19.80;99.90;;;;;;5008976;28;20056;-86
2021/07/15 06:19:05;;;;;;;24.20;17.38;;;19.80;99.90;;;;;;5024011;28;20044;-87
2021/07/15 06:21:31;;;;;;;27.58;18.55;;;19.80;99.90;;;;;;5021164;28;20458;-87
2021/07/15 06:23:57;;;;;;;27.58;17.98;;;19.80;99.90;;;;;;5016949;28;20048;-87
2021/07/15 06:26:31;;;;;;;27.88;18.35;;;19.80;99.90;;;;;;5010825;28;20026;-87
2021/07/15 06:28:57;;;;;;;25.58;18.45;;;19.80;99.90;;;;;;5011400;28;20033;-87
2021/07/15 06:31:25;;;;;;;26.50;18.08;;;19.80;99.90;;;;;;4994522;28;20034;-87
2021/07/15 06:33:51;;;;;;;31.73;19.85;;;19.80;99.90;;;;;;5014266;28;20029;-86
2021/07/15 06:36:16;;;;;;;30.45;18.33;;;19.80;99.90;;;;;;5017624;28;20101;-86
2021/07/15 06:38:42;;;;;;;26.45;18.30;;;19.80;99.90;;;;;;5007533;28;20078;-85
2021/07/15 06:41:10;;;;;;;26.48;17.98;;;19.80;99.90;;;;;;4998774;28;20037;-85
2021/07/15 06:43:39;;;;;;;23.75;17.00;;;19.80;99.90;;;;;;5028369;28;20029;-85
2021/07/15 06:46:05;;;;;;;23.65;16.70;;;19.80;99.90;;;;;;5010842;28;20112;-87
2021/07/15 06:48:31;;;;;;;22.80;16.08;;;19.80;99.90;;;;;;5013667;28;20025;-87
2021/07/15 06:50:57;;;;;;;18.48;13.80;;;19.80;99.90;;;;;;5015132;28;20036;-87
2021/07/15 06:53:22;;;;;;;16.35;12.35;;;19.80;99.90;;;;;;5010815;28;20485;-87
2021/07/15 06:55:48;;;;;;;16.90;11.40;;;19.80;99.90;;;;;;4990063;28;20037;-87
2021/07/15 06:58:14;;;;;;;14.10;10.95;;;19.80;99.90;;;;;;5018605;28;20371;-87
2021/07/15 07:00:40;;;;;;;11.57;8.43;;;19.80;99.90;;;;;;4996936;28;20060;-86
2021/07/15 07:03:05;;;;;;;10.82;8.32;;;19.80;99.90;;;;;;4997467;28;20403;-87
2021/07/15 07:05:31;;;;;;;9.35;7.47;;;19.80;99.90;;;;;;5014288;28;20101;-87
2021/07/15 07:07:58;;;;;;;8.98;7.32;;;19.80;99.90;;;;;;5003221;28;20030;-87
2021/07/15 07:10:23;;;;;;;9.55;6.82;;;19.80;99.90;;;;;;5022269;28;20037;-86
2021/07/15 07:12:49;;;;;;;9.63;6.90;;;19.80;99.90;;;;;;4993448;28;20060;-85
2021/07/15 07:15:17;;;;;;;8.40;7.43;;;19.80;99.90;;;;;;5013656;28;20509;-86
2021/07/15 07:17:43;;;;;;;9.23;7.47;;;19.80;99.90;;;;;;5016574;28;20026;-86
2021/07/15 07:20:11;;;;;;;10.30;7.95;;;19.90;99.90;;;;;;5015968;28;20040;-86
2021/07/15 07:22:37;;;;;;;11.82;8.27;;;19.90;99.90;;;;;;5020245;28;20430;-86
2021/07/15 07:25:05;;;;;;;10.30;7.70;;;19.90;99.90;;;;;;5022543;28;20064;-86
2021/07/15 07:27:31;;;;;;;11.52;8.15;;;19.90;99.90;;;;;;5020228;28;20021;-86
2021/07/15 07:29:58;;;;;;;11.60;8.35;;;19.90;99.90;;;;;;5015422;28;20022;-86
2021/07/15 07:32:24;;;;;;;10.88;8.63;;;19.80;99.90;;;;;;5017022;28;20506;-86
2021/07/15 07:34:49;;;;;;;11.85;8.95;;;19.90;99.90;;;;;;5011982;28;20017;-86
2021/07/15 07:37:15;;;;;;;14.50;9.70;;;19.80;99.90;;;;;;5011601;28;20049;-87
2021/07/15 07:39:41;;;;;;;12.65;9.65;;;19.90;99.90;;;;;;5014529;28;20029;-87
2021/07/15 07:42:06;;;;;;;13.45;10.18;;;19.90;99.90;;;;;;5017197;28;20052;-85
2021/07/15 07:44:32;;;;;;;15.73;11.30;;;19.90;99.90;;;;;;4997164;28;20116;-86
2021/07/15 07:46:58;;;;;;;17.00;11.20;;;19.80;99.90;;;;;;5016136;28;20061;-87
2021/07/15 07:49:24;;;;;;;15.25;11.50;;;19.90;99.90;;;;;;5015362;28;20053;-88
2021/07/15 07:51:50;;;;;;;18.42;12.63;;;19.80;99.90;;;;;;5022080;28;20030;-87
2021/07/15 07:54:15;;;;;;;20.75;13.40;;;19.80;99.90;;;;;;5014238;28;20030;-87
2021/07/15 07:56:41;;;;;;;15.48;12.05;;;19.80;99.90;;;;;;5010940;28;20030;-88
2021/07/15 07:59:08;;;;;;;22.50;13.98;;;19.80;99.90;;;;;;4999575;28;20034;-87
2021/07/15 08:01:35;;;;;;;18.63;13.52;;;19.80;99.90;;;;;;5020338;28;20022;-87
2021/07/15 08:04:01;;;;;;;17.45;12.90;;;19.80;99.90;;;;;;5012014;28;20018;-88
2021/07/15 08:06:33;;;;;;;18.98;12.95;;;19.80;99.90;;;;;;5025824;28;20022;-87
2021/07/15 08:08:59;;;;;;;18.17;12.45;;;19.80;99.90;;;;;;5007797;28;20125;-88
2021/07/15 08:11:24;;;;;;;15.27;11.65;;;19.80;99.90;;;;;;4995597;28;20141;-88
2021/07/15 08:13:50;;;;;;;15.93;10.68;;;19.80;99.90;;;;;;4998676;28;20026;-87
2021/07/15 08:16:16;;;;;;;15.93;11.25;;;19.80;99.90;;;;;;5031685;28;20028;-87
2021/07/15 08:18:42;;;;;;;13.65;10.30;;;19.80;99.90;;;;;;5011866;28;20112;-87
2021/07/15 08:21:07;;;;;;;14.65;9.55;;;19.80;99.90;;;;;;5008784;28;20525;-86
2021/07/15 08:23:33;;;;;;;12.82;9.27;;;19.90;99.90;;;;;;5009412;28;20100;-87
2021/07/15 08:25:59;;;;;;;12.75;9.27;;;19.90;99.90;;;;;;5015680;28;20033;-88
2021/07/15 08:28:24;;;;;;;12.02;9.25;;;19.90;99.90;;;;;;4997969;28;20022;-88
2021/07/15 08:30:50;;;;;;;13.05;8.88;;;19.90;99.90;;;;;;4997901;28;20025;-87
2021/07/15 08:33:16;;;;;;;13.93;8.80;;;19.90;99.90;;;;;;4994747;28;20112;-87
2021/07/15 08:35:41;;;;;;;10.50;7.93;;;19.90;99.90;;;;;;5000077;28;20034;-87
2021/07/15 08:38:09;;;;;;;12.95;8.20;;;19.90;99.90;;;;;;5007434;28;20061;-87
2021/07/15 08:40:35;;;;;;;9.35;7.70;;;19.90;99.90;;;;;;5025689;28;20125;-88
2021/07/15 08:43:01;;;;;;;12.75;9.18;;;19.90;99.90;;;;;;5008649;28;20120;-87
2021/07/15 08:45:28;;;;;;;13.48;9.73;;;19.90;99.90;;;;;;5019478;28;20033;-88
2021/07/15 08:47:55;;;;;;;16.55;10.52;;;19.90;99.90;;;;;;5023606;28;20061;-88
2021/07/15 08:50:21;;;;;;;18.33;11.02;;;19.90;99.90;;;;;;5009942;28;20018;-87
2021/07/15 08:52:47;;;;;;;23.70;12.60;;;19.90;99.90;;;;;;5015320;28;20084;-88
2021/07/15 08:57:40;;;;;;;18.17;11.52;;;19.90;99.90;;;;;;5015883;28;20049;-88
2021/07/15 09:00:12;;;;;;;20.20;12.40;;;19.90;99.90;;;;;;5018498;28;20518;-88
2021/07/15 09:02:39;;;;;;;19.67;12.73;;;19.90;99.90;;;;;;5016956;28;20502;-88
2021/07/15 09:05:06;;;;;;;20.70;12.73;;;19.90;99.90;;;;;;5016573;28;20022;-88
2021/07/15 09:07:32;;;;;;;25.30;14.00;;;19.90;99.90;;;;;;5002804;28;20467;-87
2021/07/15 09:09:58;;;;;;;20.88;13.18;;;19.80;99.90;;;;;;5000535;28;20042;-88
2021/07/15 09:12:24;;;;;;;20.48;13.02;;;19.90;99.90;;;;;;5016001;28;20025;-88
2021/07/15 09:14:52;;;;;;;18.35;12.93;;;19.80;99.90;;;;;;4999648;28;20578;-88
2021/07/15 09:17:32;;;;;;;19.00;12.60;;;19.80;99.90;;;;;;5017229;28;20116;-88
2021/07/15 09:19:58;;;;;;;19.17;13.43;;;19.80;99.90;;;;;;5013552;28;20132;-88
2021/07/15 09:22:24;;;;;;;19.13;12.98;;;19.80;99.90;;;;;;5004425;28;20018;-88
2021/07/15 09:24:51;;;;;;;20.92;13.13;;;19.80;99.90;;;;;;5023963;28;20038;-88
2021/07/15 09:27:17;;;;;;;19.13;12.38;;;19.80;99.90;;;;;;5015823;28;20022;-89
2021/07/15 09:29:44;;;;;;;19.98;13.10;;;19.80;99.90;;;;;;5015164;28;20022;-87
2021/07/15 09:32:14;;;;;;;19.27;12.55;;;19.80;99.90;;;;;;5030433;28;20030;-88
2021/07/15 09:34:41;;;;;;;17.67;12.68;;;19.80;99.90;;;;;;5012343;28;20394;-88
2021/07/15 09:37:15;;;;;;;18.85;12.40;;;19.80;99.90;;;;;;5014469;28;20160;-88
2021/07/15 09:39:49;;;;;;;18.17;12.32;;;19.80;99.90;;;;;;5030508;28;20037;-88
2021/07/15 09:42:20;;;;;;;19.23;12.45;;;19.80;99.90;;;;;;5012014;28;20026;-87
2021/07/15 09:44:49;;;;;;;;;;;19.80;99.90;;;;;;5012391;28;20029;-87
2021/07/15 09:47:51;;;;;;;20.35;11.68;;;19.80;99.90;;;;;;5024450;28;19959;-86
2021/07/15 09:50:17;;;;;;;18.80;12.02;;;19.70;99.90;;;;;;4953607;28;20078;-87
2021/07/15 09:52:43;;;;;;;19.60;12.88;;;19.70;99.90;;;;;;5010559;28;20033;-87
2021/07/15 09:55:23;;;;;;;19.17;12.20;;;19.80;99.90;;;;;;5016634;28;20103;-87
2021/07/15 09:58:08;;;;;;;16.80;11.90;;;19.70;99.90;;;;;;5016892;28;20514;-87
2021/07/15 10:00:38;;;;;;;17.95;13.25;;;19.80;99.90;;;;;;5012831;28;20530;-88
2021/07/15 10:03:09;;;;;;;22.38;12.63;;;19.80;99.90;;;;;;5016558;28;20129;-87
2021/07/15 10:05:47;;;;;;;18.15;12.38;;;19.80;99.90;;;;;;5012581;28;20029;-88
2021/07/15 10:08:24;;;;;;;17.23;12.40;;;19.80;99.90;;;;;;5016583;28;20022;-89
2021/07/15 10:10:50;;;;;;;18.63;12.40;;;19.80;99.90;;;;;;5014752;28;20076;-89
2021/07/15 10:13:19;;;;;;;17.15;12.52;;;19.80;99.90;;;;;;5016324;28;20491;-88
2021/07/15 10:15:47;;;;;;;17.98;12.70;;;19.80;99.90;;;;;;5012817;28;20029;-88
2021/07/15 10:18:13;;;;;;;16.30;11.73;;;19.80;99.90;;;;;;5027294;28;20037;-88
2021/07/15 10:20:56;;;;;;;17.38;12.27;;;19.80;99.90;;;;;;5020238;28;20050;-86
2021/07/15 10:23:39;;;;;;;14.10;10.93;;;19.80;99.90;;;;;;5012456;28;20030;-88
2021/07/15 10:26:08;;;;;;;17.60;11.50;;;19.80;99.90;;;;;;5033221;28;20395;-89
2021/07/15 10:28:34;;;;;;;15.15;10.85;;;19.80;99.90;;;;;;5033663;28;20025;-89
2021/07/15 10:31:03;;;;;;;11.88;10.10;;;19.80;99.90;;;;;;5027329;28;20037;-89
2021/07/15 10:33:30;;;;;;;14.40;10.68;;;19.90;99.90;;;;;;5028906;28;20385;-89
2021/07/15 10:35:57;;;;;;;16.75;10.98;;;19.90;99.90;;;;;;5020161;28;20018;-89
2021/07/15 10:38:25;;;;;;;12.98;9.77;;;19.90;99.90;;;;;;5016502;28;20120;-90
2021/07/15 10:40:52;;;;;;;12.35;10.48;;;19.90;99.90;;;;;;5024778;28;20105;-89
2021/07/15 10:43:18;;;;;;;12.93;9.10;;;19.90;99.90;;;;;;5002767;28;20037;-89
2021/07/15 10:45:45;;;;;;;12.65;10.13;;;19.90;99.90;;;;;;5006657;28;20378;-89
2021/07/15 10:48:13;;;;;;;14.95;10.85;;;19.90;99.90;;;;;;5016007;28;20463;-89
2021/07/15 10:50:39;;;;;;;13.63;10.60;;;19.90;99.90;;;;;;4999271;28;20026;-89
2021/07/15 10:53:06;;;;;;;13.30;10.82;;;19.90;99.90;;;;;;5031022;28;20104;-89
2021/07/15 10:55:32;;;;;;;16.58;11.10;;;19.90;99.90;;;;;;5034414;28;20030;-89
2021/07/15 10:57:57;;;;;;;13.00;10.60;;;19.90;99.90;;;;;;5034005;28;20036;-89
2021/07/15 11:00:26;;;;;;;15.05;11.57;;;19.90;99.90;;;;;;5017035;28;20049;-89
2021/07/15 11:03:09;;;;;;;14.38;10.25;;;19.90;99.90;;;;;;5033494;28;20049;-89
2021/07/15 11:05:49;;;;;;;12.63;9.73;;;19.90;99.90;;;;;;5021480;28;20028;-86
2021/07/15 11:08:16;;;;;;;12.83;8.90;;;19.90;99.90;;;;;;5035067;28;20026;-85
2021/07/15 11:10:42;;;;;;;13.02;9.35;;;19.90;99.90;;;;;;5033518;28;20386;-85
2021/07/15 11:13:10;;;;;;;12.88;9.48;;;19.90;99.90;;;;;;5015863;28;20037;-85
2021/07/15 11:15:56;;;;;;;13.43;9.00;;;19.90;99.90;;;;;;5032761;28;20025;-85
2021/07/15 11:18:41;;;;;;;15.82;10.50;;;19.90;99.90;;;;;;5020168;28;20053;-85
2021/07/15 11:21:32;;;;;;;12.82;10.30;;;19.90;99.90;;;;;;5034602;28;20028;-85
2021/07/15 11:24:04;;;;;;;12.43;9.50;;;19.90;99.90;;;;;;5021821;28;20026;-86
2021/07/15 11:26:40;;;;;;;14.32;9.38;;;19.90;99.90;;;;;;5021156;28;20056;-87
2021/07/15 11:29:12;;;;;;;12.85;8.82;;;19.90;99.90;;;;;;5031567;23;20144;-87
2021/07/15 11:31:51;;;;;;;10.13;8.25;;;19.90;99.90;;;;;;5034416;28;20489;-89
2021/07/15 11:34:35;;;;;;;12.32;8.75;;;20.00;99.90;;;;;;5031290;28;20038;-88
2021/07/15 11:37:32;;;;;;;11.52;9.18;;;20.00;99.90;;;;;;5027863;28;20025;-90
2021/07/15 11:39:59;;;;;;;14.90;10.15;;;19.90;99.90;;;;;;5034573;28;20116;-91
2021/07/15 11:42:27;;;;;;;15.07;9.75;;;20.00;99.90;;;;;;5017446;28;20116;-89
2021/07/15 11:45:00;;;;;;;12.90;10.43;;;20.00;99.90;;;;;;5034131;28;20029;-90
2021/07/15 11:47:53;;;;;;;14.32;10.05;;;20.00;99.90;;;;;;5014377;28;20022;-90
2021/07/15 11:50:33;;;;;;;11.82;9.57;;;20.00;99.90;;;;;;5018946;28;20030;-90
2021/07/15 11:53:25;;;;;;;14.13;10.70;;;20.00;99.90;;;;;;5019393;28;20124;-89
2021/07/15 11:55:53;;;;;;;12.80;10.38;;;20.00;99.90;;;;;;5034615;28;20537;-89
2021/07/15 11:58:45;;;;;;;14.27;10.63;;;20.00;99.90;;;;;;5033968;28;20061;-90
2021/07/15 12:01:22;;;;;;;12.27;9.75;;;20.00;99.90;;;;;;5017230;28;20045;-90
2021/07/15 12:04:08;;;;;;;13.32;10.38;;;20.00;99.90;;;;;;5033177;28;20017;-90
2021/07/15 12:06:38;;;;;;;14.05;10.10;;;20.00;99.90;;;;;;5018806;28;20025;-90
2021/07/15 12:09:09;;;;;;;14.57;10.80;;;20.00;99.90;;;;;;5018389;28;20021;-90
2021/07/15 12:11:42;;;;;;;13.45;9.68;;;20.00;99.90;;;;;;5033437;28;20448;-89
2021/07/15 12:14:13;;;;;;;16.52;10.98;;;20.00;99.90;;;;;;5021918;28;20390;-90
2021/07/15 12:16:44;;;;;;;17.50;11.80;;;20.00;99.90;;;;;;5002383;28;20120;-90
2021/07/15 12:19:10;;;;;;;13.10;10.68;;;20.00;99.90;;;;;;5014748;28;20032;-90
2021/07/15 12:21:38;;;;;;;15.30;11.35;;;20.00;99.90;;;;;;5029877;28;20371;-91
2021/07/15 12:24:18;;;;;;;14.02;11.43;;;20.00;99.90;;;;;;5025628;28;20044;-90
2021/07/15 12:26:44;;;;;;;;;;;20.00;99.90;;;;;;5035685;28;20486;-90
2021/07/15 12:29:15;;;;;;;12.38;10.75;;;20.00;99.90;;;;;;5035157;28;19913;-85
2021/07/15 12:31:41;;;;;;;15.27;11.88;;;20.00;99.90;;;;;;5034864;28;20032;-86
2021/07/15 12:34:09;;;;;;;14.90;11.95;;;20.00;99.90;;;;;;4985042;28;20107;-86
2021/07/15 12:36:37;;;;;;;15.38;11.70;;;20.00;99.90;;;;;;5017369;28;20470;-85
2021/07/15 12:39:11;;;;;;;16.40;12.20;;;20.00;99.90;;;;;;5016252;28;20022;-86
2021/07/15 12:41:41;;;;;;;17.83;12.60;;;20.00;99.90;;;;;;5017469;28;20114;-85
2021/07/15 12:44:14;;;;;;;18.52;12.07;;;20.00;99.90;;;;;;5029844;28;20036;-86
2021/07/15 12:46:44;;;;;;;16.15;12.10;;;20.00;99.90;;;;;;5018082;28;20109;-86
2021/07/15 12:49:14;;;;;;;16.05;12.45;;;20.00;99.90;;;;;;5035132;28;20030;-86
2021/07/15 12:51:46;;;;;;;17.40;12.68;;;20.00;99.90;;;;;;5017162;28;20031;-86
2021/07/15 12:54:34;;;;;;;15.82;12.82;;;20.00;99.90;;;;;;5021843;28;20034;-86
2021/07/15 12:57:03;;;;;;;15.57;13.02;;;20.00;99.90;;;;;;5026864;28;20479;-87
2021/07/15 12:59:32;;;;;;;16.27;12.75;;;20.00;99.90;;;;;;5033830;28;20471;-85
2021/07/15 13:02:00;;;;;;;16.70;12.30;;;20.00;99.90;;;;;;4991051;28;20093;-85
2021/07/15 13:04:34;;;;;;;17.20;12.23;;;20.00;99.90;;;;;;5013732;28;20010;-86
2021/07/15 13:07:10;;;;;;;14.63;11.75;;;20.00;99.90;;;;;;5014445;28;20054;-86
2021/07/15 13:15:01;;;;;;;13.93;11.60;;;20.10;99.90;;;;;;5034186;28;20095;-86
2021/07/15 13:17:47;;;;;;;19.92;11.70;;;20.10;99.90;;;;;;5000849;28;20025;-86